This is the latest recevied weather packets stored in our database for station/object KC4MCQ-10. If no packets are shown the sender has not sent any weather packets the latest 10 day(s).
| Time | Temp. | Humidity | Pressure | Rain* | Wind** | Luminosity | Snow |
|---|---|---|---|---|---|---|---|
| 1788017840 | 31.11° C | 74% | 1019.6 hPa | 6.35 mm | 1.34 m/s, 201° | - | - |
| 1788017240 | 30° C | 76% | 1019.7 hPa | 6.35 mm | 0.89 m/s, 146° | - | - |
| 1788016639 | 30° C | 76% | 1019.7 hPa | 6.35 mm | 0.89 m/s, 252° | - | - |
| 1788016037 | 30° C | 77% | 1019.6 hPa | 6.35 mm | 0.89 m/s, 5° | - | - |
| 1788015413 | 30.56° C | 77% | 1019.8 hPa | 6.35 mm | 0.45 m/s, 321° | - | - |
| 1788014812 | 30° C | 78% | 1019.7 hPa | 6.35 mm | 0.89 m/s, 261° | - | - |
| 1788014213 | 29.44° C | 79% | 1019.6 hPa | 6.35 mm | 0.89 m/s, 138° | - | - |
| 1788013611 | 28.89° C | 81% | 1019.7 hPa | 6.35 mm | 1.34 m/s, 105° | - | - |
| 1788013011 | 28.89° C | 81% | 1019.6 hPa | 6.35 mm | 1.79 m/s, 121° | - | - |
| 1788012411 | 27.78° C | 82% | 1019.6 hPa | 6.35 mm | 0.89 m/s, 131° | - | - |
| 1788011810 | 27.78° C | 83% | 1019.5 hPa | 6.35 mm | 0.89 m/s, 107° | - | - |
| 1788011209 | 27.78° C | 85% | 1019.7 hPa | 6.35 mm | 0.45 m/s, 88° | - | - |
| 1788010608 | 27.22° C | 87% | 1019.7 hPa | 6.35 mm | 0.89 m/s, 90° | - | - |
| 1788010007 | 26.11° C | 89% | 1019.6 hPa | 6.35 mm | 0.89 m/s, 93° | - | - |
| 1788009407 | 25.56° C | 91% | 1019.5 hPa | 6.35 mm | 0.89 m/s, 83° | - | - |
| 1788008806 | 25° C | 92% | 1019.3 hPa | 6.35 mm | 0.89 m/s, 116° | - | - |
| 1788008206 | 24.44° C | 93% | 1019.4 hPa | 6.35 mm | 0.89 m/s, 78° | - | - |
| 1788007605 | 24.44° C | 94% | 1019.5 hPa | 6.35 mm | 0.45 m/s, 81° | - | - |
| 1788007004 | 23.89° C | 94% | 1019.4 hPa | 6.35 mm | 0.89 m/s, 80° | - | - |
| 1788006403 | 23.89° C | 94% | 1019.5 hPa | 6.35 mm | 0.89 m/s, 96° | - | - |
| 1788005802 | 23.33° C | 94% | 1019.4 hPa | 6.35 mm | 0 m/s | - | - |
| 1788005201 | 23.33° C | 94% | 1019.4 hPa | 6.35 mm | 0 m/s | - | - |
| 1788004600 | 22.22° C | 94% | 1019.4 hPa | 6.35 mm | 0 m/s | - | - |
| 1788003996 | 22.22° C | 94% | 1019 hPa | 6.35 mm | 0.89 m/s, 113° | - | - |
| 1788003397 | 21.67° C | 94% | 1019.1 hPa | 6.35 mm | 0.45 m/s, 136° | - | - |
* Rain latest 24 hours (hover to see other rain measurements)
** Current wind speed in m/s (hover to see current wind gust speed)